Time;durP1;ratioP1;P1;durP2;ratioP2;P2;SDS_P1;SDS_P2;PMS_P1;PMS_P2;Temp;Humidity;BMP_temperature;BMP_pressure;BME280_temperature;BME280_humidity;BME280_pressure;Samples;Min_cycle;Max_cycle;Signal;HPM_P1;HPM_P2
2024/04/14 00:00:45;;;;;;;16.70;6.50;;;;;;;-147.86;100.00;-17609.17;105924;1256;65478;-46
2024/04/14 00:03:12;;;;;;;12.60;7.20;;;;;;;-147.86;100.00;-17609.17;105936;1256;72676;-44
2024/04/14 00:05:39;;;;;;;13.50;7.30;;;;;;;-147.86;100.00;-17609.17;105926;1255;61209;-47
2024/04/14 00:08:06;;;;;;;16.50;7.20;;;;;;;-147.86;100.00;-17609.17;105882;1253;61253;-44
2024/04/14 00:10:33;;;;;;;24.50;10.20;;;;;;;-147.86;100.00;-17609.17;105933;1256;74731;-43
2024/04/14 00:13:00;;;;;;;18.80;7.40;;;;;;;-147.86;100.00;-17609.17;105946;1253;65202;-49
2024/04/14 00:15:28;;;;;;;18.00;7.40;;;;;;;-147.86;100.00;-17609.17;105898;1256;72426;-44
2024/04/14 00:17:55;;;;;;;9.80;6.80;;;;;;;-147.86;100.00;-17609.17;105874;1254;61730;-47
2024/04/14 00:20:24;;;;;;;15.30;7.00;;;;;;;-147.86;100.00;-17609.17;105965;1254;61314;-45
2024/04/14 00:22:52;;;;;;;16.00;6.70;;;;;;;-147.86;100.00;-17609.17;105951;1256;74535;-47
2024/04/14 00:25:18;;;;;;;15.80;6.50;;;;;;;-147.86;100.00;-17609.17;105966;1252;65475;-44
2024/04/14 00:27:45;;;;;;;9.90;6.30;;;;;;;-147.86;100.00;-17609.17;105945;1256;72533;-48
2024/04/14 00:30:12;;;;;;;20.60;6.90;;;;;;;-147.86;100.00;-17609.17;105895;1254;61624;-46
2024/04/14 00:32:40;;;;;;;12.60;7.00;;;;;;;-147.86;100.00;-17609.17;105886;1254;61209;-44
2024/04/14 00:35:07;;;;;;;12.10;7.40;;;;;;;-147.86;100.00;-17609.17;105897;1256;74649;-47
2024/04/14 00:37:34;;;;;;;13.20;7.10;;;;;;;-147.86;100.00;-17609.17;106001;1253;65393;-47
2024/04/14 00:40:03;;;;;;;15.00;7.00;;;;;;;-147.86;100.00;-17609.17;105934;1256;72575;-45
2024/04/14 00:42:30;;;;;;;12.30;7.30;;;;;;;-147.86;100.00;-17609.17;105923;1253;61676;-48
2024/04/14 00:44:57;;;;;;;21.40;8.30;;;;;;;-147.86;100.00;-17609.17;105705;1252;61366;-48
2024/04/14 00:47:24;;;;;;;18.00;7.30;;;;;;;-147.86;100.00;-17609.17;105896;1256;74502;-50
2024/04/14 00:49:51;;;;;;;15.20;7.20;;;;;;;-147.86;100.00;-17609.17;105689;1254;65369;-52
2024/04/14 00:52:18;;;;;;;14.60;7.30;;;;;;;-147.86;100.00;-17609.17;105885;1257;72619;-46
2024/04/14 00:54:45;;;;;;;10.00;6.60;;;;;;;-147.86;100.00;-17609.17;105918;1252;61873;-50
2024/04/14 00:57:13;;;;;;;12.20;6.90;;;;;;;-147.86;100.00;-17609.17;105709;1253;61272;-46
2024/04/14 00:59:40;;;;;;;11.00;7.20;;;;;;;-147.86;100.00;-17609.17;105629;1254;74753;-45
2024/04/14 01:02:07;;;;;;;15.40;6.90;;;;;;;-147.86;100.00;-17609.17;105535;1253;65537;-49
2024/04/14 01:04:34;;;;;;;11.00;7.00;;;;;;;-147.86;100.00;-17609.17;105796;1256;72486;-50
2024/04/14 01:07:02;;;;;;;14.90;6.40;;;;;;;-147.86;100.00;-17609.17;105922;1254;61281;-46
2024/04/14 01:09:29;;;;;;;12.10;7.00;;;;;;;-147.86;100.00;-17609.17;105744;1252;61222;-52
2024/04/14 01:11:57;;;;;;;16.90;7.00;;;;;;;-147.86;100.00;-17609.17;105925;1256;74523;-57
2024/04/14 01:14:24;;;;;;;14.30;7.10;;;;;;;-147.86;100.00;-17609.17;105908;1254;65334;-46
2024/04/14 01:16:51;;;;;;;10.90;7.20;;;;;;;-147.86;100.00;-17609.17;105937;1253;72496;-45
2024/04/14 01:19:18;;;;;;;8.00;7.10;;;;;;;-147.86;100.00;-17609.17;105917;1254;62016;-46
2024/04/14 01:21:45;;;;;;;12.60;7.50;;;;;;;-147.86;100.00;-17609.17;105905;1253;61238;-43
2024/04/14 01:24:12;;;;;;;16.90;6.90;;;;;;;-147.86;100.00;-17609.17;105909;1252;74604;-46
2024/04/14 01:26:39;;;;;;;9.30;7.00;;;;;;;-147.86;100.00;-17609.17;105912;1256;65526;-48
2024/04/14 01:29:06;;;;;;;17.10;7.20;;;;;;;-147.86;100.00;-17609.17;105887;1253;72508;-47
2024/04/14 01:31:33;;;;;;;11.60;7.60;;;;;;;-147.86;100.00;-17609.17;105943;1253;61168;-48
2024/04/14 01:34:00;;;;;;;12.40;6.90;;;;;;;-147.86;100.00;-17609.17;105948;1254;61246;-46
2024/04/14 01:36:27;;;;;;;12.00;6.20;;;;;;;-147.86;100.00;-17609.17;105909;1255;74623;-46
2024/04/14 01:38:54;;;;;;;19.80;7.30;;;;;;;-147.86;100.00;-17609.17;105907;1252;65499;-46
2024/04/14 01:41:22;;;;;;;11.00;6.90;;;;;;;-147.86;100.00;-17609.17;105960;1253;72557;-45
2024/04/14 01:43:49;;;;;;;13.70;6.20;;;;;;;-147.86;100.00;-17609.17;105924;1253;61787;-46
2024/04/14 01:46:17;;;;;;;12.10;6.40;;;;;;;-147.86;100.00;-17609.17;105912;1253;61286;-46
2024/04/14 01:48:44;;;;;;;17.80;7.50;;;;;;;-147.86;100.00;-17609.17;105933;1251;74611;-43
2024/04/14 01:51:13;;;;;;;19.80;6.40;;;;;;;-147.86;100.00;-17609.17;105938;1252;65382;-48
2024/04/14 01:53:40;;;;;;;10.10;6.80;;;;;;;-147.86;100.00;-17609.17;105904;1254;72679;-48
2024/04/14 01:56:08;;;;;;;14.10;6.20;;;;;;;-147.86;100.00;-17609.17;105918;1253;61155;-48
2024/04/14 01:58:35;;;;;;;12.40;6.60;;;;;;;-147.86;100.00;-17609.17;105957;1253;61250;-49
2024/04/14 02:01:02;;;;;;;15.30;7.20;;;;;;;-147.86;100.00;-17609.17;105898;1255;74652;-49
2024/04/14 02:03:30;;;;;;;13.30;7.30;;;;;;;-147.86;100.00;-17609.17;105959;1253;65273;-45
2024/04/14 02:05:57;;;;;;;14.00;6.90;;;;;;;-147.86;100.00;-17609.17;105955;1256;72658;-49
2024/04/14 02:08:25;;;;;;;10.20;6.60;;;;;;;-147.86;100.00;-17609.17;105957;1253;61251;-51
2024/04/14 02:10:52;;;;;;;15.50;7.10;;;;;;;-147.86;100.00;-17609.17;105961;1251;61346;-49
2024/04/14 02:13:19;;;;;;;15.00;8.40;;;;;;;-147.86;100.00;-17609.17;105933;1255;74435;-48
2024/04/14 02:15:46;;;;;;;17.70;7.10;;;;;;;-147.86;100.00;-17609.17;105952;1253;65647;-48
2024/04/14 02:18:13;;;;;;;10.40;6.50;;;;;;;-147.86;100.00;-17609.17;105962;1256;72557;-44
2024/04/14 02:20:43;;;;;;;13.70;7.10;;;;;;;-147.86;100.00;-17609.17;105880;1253;61796;-48
2024/04/14 02:23:10;;;;;;;19.20;7.00;;;;;;;-147.86;100.00;-17609.17;105930;1253;61142;-48
2024/04/14 02:25:37;;;;;;;9.10;6.30;;;;;;;-147.86;100.00;-17609.17;105934;1255;74668;-48
2024/04/14 02:28:06;;;;;;;10.10;7.00;;;;;;;-147.86;100.00;-17609.17;105910;1252;65259;-46
2024/04/14 02:30:33;;;;;;;16.50;7.30;;;;;;;-147.86;100.00;-17609.17;105904;1253;72690;-45
2024/04/14 02:33:00;;;;;;;15.80;7.20;;;;;;;-147.86;100.00;-17609.17;105951;1253;61157;-45
2024/04/14 02:35:27;;;;;;;18.00;6.30;;;;;;;-147.86;100.00;-17609.17;105958;1254;61215;-44
2024/04/14 02:37:54;;;;;;;14.60;6.40;;;;;;;-147.86;100.00;-17609.17;105907;1251;74457;-44
2024/04/14 02:40:21;;;;;;;18.80;6.60;;;;;;;-147.86;100.00;-17609.17;105961;1255;65472;-45
2024/04/14 02:42:48;;;;;;;8.40;7.00;;;;;;;-147.86;100.00;-17609.17;105951;1253;72698;-48
2024/04/14 02:45:15;;;;;;;12.20;6.40;;;;;;;-147.86;100.00;-17609.17;105918;1253;61894;-45
2024/04/14 02:47:42;;;;;;;9.70;6.20;;;;;;;-147.86;100.00;-17609.17;105970;1251;61310;-47
2024/04/14 02:50:10;;;;;;;10.70;6.50;;;;;;;-147.86;100.00;-17609.17;105947;1256;74727;-47
2024/04/14 02:52:37;;;;;;;16.30;6.50;;;;;;;-147.86;100.00;-17609.17;105896;1253;64294;-47
2024/04/14 02:55:05;;;;;;;14.40;6.30;;;;;;;-147.86;100.00;-17609.17;105870;1256;72547;-48
2024/04/14 02:57:32;;;;;;;18.70;6.60;;;;;;;-147.86;100.00;-17609.17;105948;1256;61238;-47
2024/04/14 03:00:00;;;;;;;16.60;7.40;;;;;;;-147.86;100.00;-17609.17;105969;1253;61231;-45
2024/04/14 03:02:27;;;;;;;9.60;7.00;;;;;;;-147.86;100.00;-17609.17;105899;1256;73579;-48
2024/04/14 03:04:54;;;;;;;15.90;6.70;;;;;;;-147.86;100.00;-17609.17;105920;1253;65389;-44
2024/04/14 03:07:21;;;;;;;9.60;6.50;;;;;;;-147.86;100.00;-17609.17;105947;1254;72646;-48
2024/04/14 03:09:48;;;;;;;10.50;7.10;;;;;;;-147.86;100.00;-17609.17;105881;1253;61967;-43
2024/04/14 03:12:15;;;;;;;11.10;7.00;;;;;;;-147.86;100.00;-17609.17;105679;1253;61418;-46
2024/04/14 03:14:42;;;;;;;11.20;8.20;;;;;;;-147.86;100.00;-17609.17;105919;1253;74617;-47
2024/04/14 03:17:09;;;;;;;16.20;7.40;;;;;;;-147.86;100.00;-17609.17;105962;1253;65565;-44
2024/04/14 03:19:36;;;;;;;15.80;7.60;;;;;;;-147.86;100.00;-17609.17;105898;1256;71667;-43
2024/04/14 03:22:03;;;;;;;14.90;7.60;;;;;;;-147.86;100.00;-17609.17;105676;1254;61242;-46
2024/04/14 03:24:32;;;;;;;12.90;7.40;;;;;;;-147.86;100.00;-17609.17;105959;1253;61253;-44
2024/04/14 03:26:59;;;;;;;17.60;7.70;;;;;;;-147.86;100.00;-17609.17;105943;1256;74562;-47
2024/04/14 03:29:26;;;;;;;16.20;7.70;;;;;;;-147.86;100.00;-17609.17;105927;1256;64587;-45
2024/04/14 03:31:53;;;;;;;16.60;8.20;;;;;;;-147.86;100.00;-17609.17;105865;1253;72606;-45
2024/04/14 03:34:20;;;;;;;10.90;7.90;;;;;;;-147.86;100.00;-17609.17;105895;1252;61897;-45
2024/04/14 03:36:47;;;;;;;11.50;7.30;;;;;;;-147.86;100.00;-17609.17;105892;1252;61344;-47
2024/04/14 03:39:14;;;;;;;9.30;7.40;;;;;;;-147.86;100.00;-17609.17;105897;1256;74556;-47
2024/04/14 03:41:41;;;;;;;11.90;7.30;;;;;;;-147.86;100.00;-17609.17;105872;1251;65374;-43
2024/04/14 03:44:08;;;;;;;11.60;6.20;;;;;;;-147.86;100.00;-17609.17;105930;1256;72449;-48
2024/04/14 03:46:36;;;;;;;19.20;8.10;;;;;;;-147.86;100.00;-17518.09;105926;1256;61208;-46
2024/04/14 03:49:03;;;;;;;10.80;7.50;;;;;;;-147.86;100.00;-17051.03;105918;1252;61266;-43
2024/04/14 03:51:30;;;;;;;10.80;7.30;;;;;;;-147.86;100.00;-16224.72;105918;1253;73571;-44
2024/04/14 03:53:58;;;;;;;10.60;7.30;;;;;;;-147.86;100.00;-15014.02;105887;1253;65468;-48
2024/04/14 03:56:25;;;;;;;10.90;6.60;;;;;;;-147.86;100.00;-13313.25;105723;1253;72634;-48
2024/04/14 03:58:52;;;;;;;8.80;6.50;;;;;;;-147.86;100.00;-11072.67;105921;1253;61816;-46
2024/04/14 04:01:19;;;;;;;11.90;6.70;;;;;;;-147.86;100.00;-8199.79;105930;1254;61141;-51
2024/04/14 04:03:47;;;;;;;9.60;6.80;;;;;;;-147.86;100.00;-4907.09;105920;1253;74513;-47
2024/04/14 04:06:14;;;;;;;13.20;7.00;;;;;;;-147.86;100.00;-1308.85;105948;1256;65422;-43
2024/04/14 04:08:41;;;;;;;12.10;6.90;;;;;;;-147.86;100.00;2641.92;105906;1253;72624;-44
2024/04/14 04:11:09;;;;;;;13.80;7.00;;;;;;;-147.86;100.00;6703.73;105898;1253;61965;-47
2024/04/14 04:13:36;;;;;;;10.80;6.30;;;;;;;-147.86;100.00;10311.21;105915;1253;61257;-46
2024/04/14 04:16:07;;;;;;;14.70;7.00;;;;;;;-147.86;100.00;13470.80;105916;1256;74558;-48
2024/04/14 04:18:34;;;;;;;12.40;7.40;;;;;;;-147.86;100.00;15601.32;105942;1253;63546;-46
2024/04/14 04:21:08;;;;;;;16.90;8.00;;;;;;;-147.86;100.00;16964.68;105929;1253;72767;-48
2024/04/14 04:23:36;;;;;;;14.70;7.60;;;;;;;-147.86;100.00;16806.77;105937;1253;61837;-46
2024/04/14 04:26:03;;;;;;;14.00;7.20;;;;;;;-147.86;100.00;16422.46;105971;1253;61254;-45
2024/04/14 04:28:30;;;;;;;16.10;7.90;;;;;;;-147.86;100.00;15227.14;105866;1256;74564;-45
2024/04/14 04:31:14;;;;;;;18.60;8.10;;;;;;;-147.86;100.00;13119.34;105900;1255;65161;-47
2024/04/14 04:33:41;;;;;;;21.90;9.70;;;;;;;-147.86;100.00;8192.25;105842;1255;72618;-47
2024/04/14 04:36:11;;;;;;;25.60;11.40;;;;;;;-147.86;100.00;4407.23;105937;1256;61139;-46
2024/04/14 04:38:44;;;;;;;28.40;11.50;;;;;;;-147.86;100.00;-438.67;105938;1256;61301;-47
2024/04/14 04:41:12;;;;;;;22.00;10.80;;;;;;;-147.86;100.00;-6158.19;105915;1253;74565;-48
2024/04/14 04:43:39;;;;;;;20.70;12.90;;;;;;;-147.86;100.00;-11376.23;105908;1253;64537;-48
2024/04/14 04:46:06;;;;;;;24.60;13.50;;;;;;;-147.86;100.00;-15227.32;105865;1254;72401;-45
2024/04/14 04:48:33;;;;;;;22.90;12.60;;;;;;;-147.86;100.00;-17585.85;105955;1256;61243;-46
2024/04/14 04:51:00;;;;;;;26.20;11.90;;;;;;;-147.86;100.00;-17609.17;105924;1253;61285;-46
2024/04/14 04:53:27;;;;;;;13.40;9.60;;;;;;;-147.86;100.00;-17609.17;105979;1256;74304;-45
2024/04/14 04:55:54;;;;;;;19.90;7.90;;;;;;;-147.86;100.00;-17609.17;105911;1251;65408;-45
2024/04/14 04:58:21;;;;;;;14.60;7.70;;;;;;;-147.86;100.00;-17609.17;105938;1253;72386;-41
2024/04/14 05:00:58;;;;;;;20.40;7.40;;;;;;;-147.86;100.00;-17609.17;105909;1256;61177;-46
2024/04/14 05:03:26;;;;;;;19.50;6.90;;;;;;;-147.86;100.00;-17609.17;105915;1253;61266;-43
2024/04/14 05:06:00;;;;;;;32.00;6.80;;;;;;;-147.86;100.00;-17609.17;106015;1252;74499;-44
2024/04/14 05:08:27;;;;;;;13.10;6.30;;;;;;;-147.86;100.00;-17609.17;105902;1256;65516;-48
2024/04/14 05:10:54;;;;;;;15.00;6.60;;;;;;;-147.86;100.00;-17609.17;105903;1256;72971;-49
2024/04/14 05:13:22;;;;;;;7.60;5.10;;;;;;;-147.86;100.00;-17609.17;105941;1253;61931;-44
2024/04/14 05:15:49;;;;;;;11.30;5.50;;;;;;;-147.86;100.00;-17609.17;105943;1251;61246;-47
2024/04/14 05:18:16;;;;;;;11.10;5.00;;;;;;;-147.86;100.00;-17609.17;105931;1255;74632;-46
2024/04/14 05:20:43;;;;;;;11.90;5.90;;;;;;;-147.86;100.00;-17609.17;105968;1253;65577;-46
2024/04/14 05:23:10;;;;;;;8.00;5.20;;;;;;;-147.86;100.00;-17609.17;105946;1253;72641;-50
2024/04/14 05:25:40;;;;;;;14.80;6.40;;;;;;;-147.86;100.00;-17609.17;105924;1255;61241;-49
2024/04/14 05:28:07;;;;;;;10.70;6.10;;;;;;;-147.86;100.00;-17609.17;105921;1253;61206;-48
2024/04/14 05:30:36;;;;;;;9.00;5.80;;;;;;;-147.86;100.00;-17609.17;105889;1253;74349;-50
2024/04/14 05:33:03;;;;;;;13.60;5.50;;;;;;;-147.86;100.00;-17609.17;105916;1256;64621;-45
2024/04/14 05:35:30;;;;;;;6.30;5.30;;;;;;;-147.86;100.00;-17609.17;105959;1254;72607;-49
2024/04/14 05:37:57;;;;;;;9.00;5.30;;;;;;;-147.86;100.00;-17609.17;105972;1253;61132;-45
2024/04/14 05:40:25;;;;;;;7.80;5.40;;;;;;;-147.86;100.00;-17609.17;105946;1251;61239;-46
2024/04/14 05:42:54;;;;;;;6.40;4.90;;;;;;;-147.86;100.00;-17609.17;105912;1253;73418;-50
2024/04/14 05:45:25;;;;;;;9.80;4.90;;;;;;;-147.86;100.00;-17609.17;105943;1254;64228;-45
2024/04/14 05:47:55;;;;;;;7.80;4.50;;;;;;;-147.86;100.00;-17609.17;105932;1253;71434;-50
2024/04/14 05:50:22;;;;;;;5.10;4.60;;;;;;;-147.86;100.00;-17609.17;105899;1256;61219;-52
2024/04/14 05:52:49;;;;;;;7.40;4.90;;;;;;;-147.86;100.00;-17609.17;105895;1252;61502;-49
2024/04/14 05:55:16;;;;;;;5.70;4.80;;;;;;;-147.86;100.00;-17609.17;105662;1254;73574;-44
2024/04/14 05:57:42;;;;;;;10.20;4.90;;;;;;;-147.86;100.00;-17609.17;105698;1253;65445;-46
2024/04/14 06:00:10;;;;;;;5.30;4.80;;;;;;;-147.86;100.00;-17609.17;105800;1253;71666;-45
2024/04/14 06:02:43;;;;;;;7.90;4.80;;;;;;;-147.86;100.00;-17609.17;105895;1256;61212;-46
2024/04/14 06:05:11;;;;;;;4.90;4.50;;;;;;;-147.86;100.00;-17609.17;105934;1251;61228;-48
2024/04/14 06:07:38;;;;;;;13.00;5.70;;;;;;;-147.86;100.00;-17609.17;105914;1254;73512;-47
2024/04/14 06:10:06;;;;;;;6.70;5.30;;;;;;;-147.86;100.00;-17609.17;105946;1251;65392;-48
2024/04/14 06:12:33;;;;;;;6.70;5.10;;;;;;;-147.86;100.00;-17609.17;105928;1256;72614;-45
2024/04/14 06:15:00;;;;;;;10.00;4.90;;;;;;;-147.86;100.00;-17609.17;105913;1256;61124;-46
2024/04/14 06:17:28;;;;;;;11.50;5.90;;;;;;;-147.86;100.00;-17609.17;105945;1253;61080;-48
2024/04/14 06:19:56;;;;;;;13.60;6.10;;;;;;;-147.86;100.00;-17609.17;105920;1256;74499;-47
2024/04/14 06:22:23;;;;;;;8.90;6.30;;;;;;;-147.86;100.00;-17609.17;105955;1253;65441;-48
2024/04/14 06:24:49;;;;;;;9.70;6.30;;;;;;;-147.86;100.00;-17609.17;105885;1253;72575;-47
2024/04/14 06:27:16;;;;;;;8.80;6.50;;;;;;;-147.86;100.00;-17609.17;105898;1256;61506;-47
2024/04/14 06:29:43;;;;;;;9.10;6.10;;;;;;;-147.86;100.00;-17609.17;105906;1251;61200;-44
2024/04/14 06:32:10;;;;;;;6.20;5.30;;;;;;;-147.86;100.00;-17609.17;105908;1252;74485;-47
2024/04/14 06:34:37;;;;;;;7.30;5.50;;;;;;;-147.86;100.00;-17609.17;105891;1256;65458;-45
2024/04/14 06:37:04;;;;;;;7.00;6.20;;;;;;;-147.86;100.00;-17609.17;105917;1254;72711;-48
2024/04/14 06:39:31;;;;;;;8.70;5.90;;;;;;;-147.86;100.00;-17609.17;105939;1253;61164;-51
2024/04/14 06:41:59;;;;;;;6.10;5.60;;;;;;;-147.86;100.00;-17609.17;105984;1253;61241;-47
2024/04/14 06:44:26;;;;;;;6.10;5.10;;;;;;;-147.86;100.00;-17609.17;105914;1256;74548;-48
2024/04/14 06:46:53;;;;;;;7.70;5.80;;;;;;;-147.86;100.00;-17609.17;105915;1253;64691;-50
2024/04/14 06:49:20;;;;;;;7.60;5.40;;;;;;;-147.86;100.00;-17609.17;105948;1254;72490;-46
2024/04/14 06:51:47;;;;;;;5.60;5.10;;;;;;;-147.86;100.00;-17609.17;105869;1253;62010;-48
2024/04/14 06:54:14;;;;;;;7.00;4.40;;;;;;;-147.86;100.00;-17609.17;105940;1253;61260;-47
2024/04/14 06:56:41;;;;;;;6.10;4.50;;;;;;;-147.86;100.00;-17609.17;105892;1254;74662;-45
2024/04/14 06:59:09;;;;;;;8.30;4.40;;;;;;;-147.86;100.00;-17609.17;105944;1256;65289;-46
2024/04/14 07:01:36;;;;;;;4.20;3.70;;;;;;;-147.86;100.00;-17609.17;105940;1254;72612;-46
2024/04/14 07:04:03;;;;;;;3.60;3.30;;;;;;;-147.86;100.00;-17609.17;105942;1253;61141;-45
2024/04/14 07:06:31;;;;;;;5.00;4.10;;;;;;;-147.86;100.00;-17609.17;105944;1253;61343;-48
2024/04/14 07:08:58;;;;;;;5.50;3.60;;;;;;;-147.86;100.00;-17609.17;105729;1255;75439;-47
2024/04/14 07:11:25;;;;;;;4.90;3.30;;;;;;;-147.86;100.00;-17609.17;105724;1256;64676;-48
2024/04/14 07:13:52;;;;;;;9.80;3.60;;;;;;;-147.86;100.00;-17609.17;105880;1253;72975;-51
2024/04/14 07:16:19;;;;;;;5.50;3.50;;;;;;;-147.86;100.00;-17609.17;105882;1255;61161;-47
2024/04/14 07:18:46;;;;;;;4.60;3.60;;;;;;;-147.86;100.00;-17609.17;105922;1253;61346;-49
2024/04/14 07:21:13;;;;;;;13.20;4.50;;;;;;;-147.86;100.00;-17609.17;105932;1253;75933;-45
2024/04/14 07:23:40;;;;;;;3.00;2.80;;;;;;;-147.86;100.00;-17609.17;105917;1256;64621;-47
2024/04/14 07:26:07;;;;;;;4.40;3.10;;;;;;;-147.86;100.00;-17609.17;105909;1253;72595;-46
2024/04/14 07:28:37;;;;;;;5.10;2.70;;;;;;;-147.86;100.00;-17609.17;105935;1253;62588;-48
2024/04/14 07:31:04;;;;;;;5.50;2.90;;;;;;;-147.86;100.00;-17609.17;105877;1251;61266;-46
2024/04/14 07:33:32;;;;;;;5.00;3.30;;;;;;;-147.86;100.00;-17609.17;105927;1256;74788;-43
2024/04/14 07:35:59;;;;;;;2.70;2.50;;;;;;;-147.86;100.00;-17213.52;105970;1256;64567;-42
2024/04/14 07:38:26;;;;;;;5.50;2.80;;;;;;;-147.86;100.00;-16768.78;105904;1253;72915;-46
2024/04/14 07:40:53;;;;;;;5.80;2.90;;;;;;;-147.86;100.00;-12670.25;105924;1253;61279;-44
2024/04/14 07:43:20;;;;;;;4.00;2.80;;;;;;;-147.86;100.00;-10298.10;105864;1251;61322;-46
2024/04/14 07:45:48;;;;;;;3.50;2.80;;;;;;;-147.86;99.01;-5696.59;105880;1255;74903;-47
2024/04/14 07:48:14;;;;;;;8.40;2.90;;;;;;;-147.86;97.24;4065.82;105912;1256;66807;-48
2024/04/14 07:50:43;;;;;;;6.50;2.80;;;;;;;-147.86;97.24;9925.00;105885;1253;73915;-46
2024/04/14 07:53:10;;;;;;;6.40;2.80;;;;;;;-147.86;99.47;6448.05;105964;1253;61221;-47
2024/04/14 07:55:37;;;;;;;5.90;3.30;;;;;;;-147.86;98.97;6199.64;105922;1253;61235;-44
2024/04/14 07:58:04;;;;;;;3.00;2.70;;;;;;;-147.86;98.12;9925.01;105904;1256;74659;-48
2024/04/14 08:00:31;;;;;;;2.90;2.40;;;;;;;-147.86;97.89;12311.19;105902;1256;65594;-50
2024/04/14 08:02:59;;;;;;;3.20;2.40;;;;;;;-147.86;97.67;13753.57;105903;1253;72483;-46
2024/04/14 08:05:26;;;;;;;3.10;2.30;;;;;;;-147.86;93.88;23420.25;105951;1256;61194;-48
2024/04/14 08:07:54;;;;;;;5.70;2.30;;;;;;;-147.86;90.62;35577.69;105900;1252;61235;-47
2024/04/14 08:10:21;;;;;;;2.00;1.90;;;;;;;-147.86;90.88;39782.23;104735;1253;1565604;-46
2024/04/14 08:15:01;;;;;;;2.40;2.20;;;;;;;-147.86;88.39;43774.90;102494;1293;603354;-47
2024/04/14 08:17:32;;;;;;;7.30;2.40;;;;;;;-147.86;91.13;43453.70;104865;1270;60649;-47
2024/04/14 08:19:58;;;;;;;2.40;2.20;;;;;;;-147.86;89.59;43822.21;104902;1265;60316;-46
2024/04/14 08:22:25;;;;;;;3.90;2.20;;;;;;;-147.86;87.44;44182.14;104832;1267;72950;-49
2024/04/14 08:24:52;;;;;;;2.20;2.10;;;;;;;-147.86;85.11;44902.50;104974;1270;65659;-49
2024/04/14 08:27:19;;;;;;;5.30;2.20;;;;;;;-147.86;87.53;46245.26;104752;1269;232318;-45
2024/04/14 08:29:46;;;;;;;8.00;2.30;;;;;;;-147.86;86.33;46882.48;105154;1267;60623;-49
2024/04/14 08:32:14;;;;;;;3.10;1.90;;;;;;;-147.86;84.58;47196.04;105204;1263;60441;-49
2024/04/14 08:34:41;;;;;;;2.10;2.00;;;;;;;-147.86;85.82;47451.23;105201;1269;73504;-43
2024/04/14 08:37:08;;;;;;;5.80;2.20;;;;;;;-147.86;85.14;47510.81;105183;1267;65526;-48
2024/04/14 08:39:35;;;;;;;2.30;2.10;;;;;;;-147.86;84.03;47649.58;105196;1263;72711;-45
2024/04/14 08:42:05;;;;;;;4.40;2.10;;;;;;;-147.86;86.15;47776.99;105173;1267;60414;-47
2024/04/14 08:44:32;;;;;;;2.50;2.20;;;;;;;-147.86;85.18;47787.18;105179;1263;60579;-48
2024/04/14 08:46:59;;;;;;;5.20;2.10;;;;;;;-147.86;86.31;47901.27;104899;1263;72845;-48
2024/04/14 08:49:26;;;;;;;2.50;2.30;;;;;;;-147.86;87.02;47921.26;105262;1264;65453;-50
2024/04/14 08:51:54;;;;;;;4.40;2.80;;;;;;;-147.86;85.99;47931.05;105270;1260;72908;-48
2024/04/14 08:54:22;;;;;;;3.90;2.10;;;;;;;-147.86;83.96;47969.87;105266;1260;60891;-46
2024/04/14 08:56:51;;;;;;;3.70;2.10;;;;;;;-147.86;84.50;48094.54;105295;1260;60482;-44
2024/04/14 08:59:19;;;;;;;4.70;2.40;;;;;;;-147.86;84.12;48134.54;105335;1265;73796;-52
2024/04/14 09:01:47;;;;;;;5.90;2.20;;;;;;;-147.86;82.02;48187.07;105206;1266;64977;-46
2024/04/14 09:04:15;;;;;;;3.20;1.90;;;;;;;-147.86;85.31;48296.86;105246;1262;73147;-47
2024/04/14 09:06:43;;;;;;;4.70;2.50;;;;;;;-147.86;84.01;48289.01;105246;1262;60413;-45
2024/04/14 09:09:11;;;;;;;4.00;2.10;;;;;;;-147.86;82.28;48305.48;105288;1263;61336;-49
2024/04/14 09:11:38;;;;;;;6.00;2.40;;;;;;;-147.86;80.01;48350.96;105243;1266;74012;-50
2024/04/14 09:14:05;;;;;;;3.60;2.60;;;;;;;-147.86;75.90;48356.45;105149;1268;64636;-52
2024/04/14 09:16:32;;;;;;;7.00;2.00;;;;;;;-147.86;77.53;48435.66;105232;1263;73218;-49
2024/04/14 09:18:59;;;;;;;5.90;2.40;;;;;;;-147.86;75.50;48468.98;105261;1265;60445;-50
2024/04/14 09:21:27;;;;;;;4.30;2.40;;;;;;;-147.86;73.98;48474.08;105261;1263;60508;-49
2024/04/14 09:23:56;;;;;;;8.30;2.40;;;;;;;-147.86;72.52;48479.96;105261;1263;74274;-48
2024/04/14 09:26:24;;;;;;;6.80;2.50;;;;;;;-147.86;68.22;48465.06;105209;1266;65641;-51
2024/04/14 09:29:02;;;;;;;7.70;2.40;;;;;;;-147.86;70.49;48495.64;105222;1263;72673;-50
2024/04/14 09:31:30;;;;;;;2.30;2.20;;;;;;;-147.86;70.99;48508.98;105262;1265;60404;-47
2024/04/14 09:33:57;;;;;;;7.00;2.30;;;;;;;-147.86;72.12;48510.55;105281;1263;60632;-54
2024/04/14 09:36:25;;;;;;;3.20;1.70;;;;;;;-147.86;68.46;48442.71;105225;1265;73857;-45
2024/04/14 09:38:52;;;;;;;4.50;2.00;;;;;;;-147.86;70.38;48459.96;105262;1265;66408;-47
2024/04/14 09:41:23;;;;;;;5.10;2.10;;;;;;;-147.86;71.03;48474.86;105237;1262;73434;-48
2024/04/14 09:43:54;;;;;;;3.10;2.10;;;;;;;-147.86;66.36;48439.57;105272;1265;61118;-48
2024/04/14 09:46:21;;;;;;;2.00;1.80;;;;;;;-147.86;67.94;48433.30;105219;1263;60425;-53
2024/04/14 09:48:49;;;;;;;3.80;1.90;;;;;;;-147.86;66.06;48406.64;105214;1265;74939;-51
2024/04/14 09:51:16;;;;;;;3.70;2.00;;;;;;;-147.86;66.46;48443.49;105175;1265;65595;-48
2024/04/14 09:53:43;;;;;;;7.70;2.20;;;;;;;-147.86;64.23;48378.41;105002;1263;72523;-48
2024/04/14 09:56:10;;;;;;;3.00;2.40;;;;;;;-147.86;65.07;48356.06;105262;1266;60438;-47
2024/04/14 09:58:37;;;;;;;5.20;2.30;;;;;;;-147.86;64.01;48358.02;105177;1262;60555;-46
2024/04/14 10:01:06;;;;;;;3.30;2.40;;;;;;;-147.86;59.58;48259.21;105235;1265;73938;-48
2024/04/14 10:03:33;;;;;;;5.20;2.10;;;;;;;-147.86;59.44;48225.11;105149;1263;63988;-53
2024/04/14 10:06:00;;;;;;;2.80;2.30;;;;;;;-147.86;62.86;48233.73;104936;1263;72783;-46
2024/04/14 10:08:33;;;;;;;3.00;2.30;;;;;;;-147.86;62.90;48220.79;104926;1269;60416;-54
2024/04/14 10:11:01;;;;;;;4.50;2.40;;;;;;;-147.86;64.38;48226.68;105241;1263;61595;-52
2024/04/14 10:13:28;;;;;;;4.20;2.40;;;;;;;-147.86;61.58;48189.43;105220;1263;75155;-47
2024/04/14 10:15:56;;;;;;;3.70;2.40;;;;;;;-147.86;62.39;48172.96;105259;1265;65748;-50
2024/04/14 10:18:34;;;;;;;2.90;2.30;;;;;;;-147.86;64.10;48179.63;105259;1263;72719;-48
2024/04/14 10:21:01;;;;;;;6.40;2.40;;;;;;;-147.86;63.25;48166.30;105186;1265;61007;-47
2024/04/14 10:23:28;;;;;;;3.30;2.20;;;;;;;-147.86;63.22;48173.35;105228;1263;60976;-48
2024/04/14 10:25:55;;;;;;;5.60;2.50;;;;;;;-147.86;65.30;48173.75;105237;1263;74017;-47
2024/04/14 10:28:22;;;;;;;3.00;2.70;;;;;;;-147.86;65.71;48223.14;105249;1265;66330;-47
2024/04/14 10:31:00;;;;;;;4.70;2.30;;;;;;;-147.86;62.94;48218.44;105244;1263;72624;-44
2024/04/14 10:33:27;;;;;;;2.90;2.60;;;;;;;-147.86;60.25;48174.92;105229;1265;62223;-49
2024/04/14 10:36:04;;;;;;;3.90;2.60;;;;;;;-147.86;60.55;48147.08;105189;1263;60526;-48
2024/04/14 10:38:32;;;;;;;7.80;2.50;;;;;;;-147.86;61.87;48143.16;105173;1263;74604;-49
2024/04/14 10:41:00;;;;;;;5.60;2.80;;;;;;;-147.86;58.82;48130.23;105018;1264;64760;-46
2024/04/14 10:43:27;;;;;;;4.70;2.80;;;;;;;-147.86;59.32;48107.09;104976;1263;73352;-47
2024/04/14 10:45:59;;;;;;;10.70;3.20;;;;;;;-147.86;58.05;48079.65;105129;1265;61558;-50
2024/04/14 10:48:26;;;;;;;5.20;3.10;;;;;;;-147.86;59.55;48082.00;105249;1264;60505;-53
2024/04/14 10:50:53;;;;;;;2.60;2.40;;;;;;;-147.86;60.09;48090.24;105468;1260;73809;-52
2024/04/14 10:53:20;;;;;;;6.50;3.00;;;;;;;-147.86;60.72;48100.43;105426;1262;64011;-45
2024/04/14 10:55:47;;;;;;;7.80;2.80;;;;;;;-147.86;60.41;48083.57;105447;1262;71819;-50
2024/04/14 10:58:14;;;;;;;9.00;3.20;;;;;;;-147.86;62.28;48096.11;105451;1262;60394;-48